createdAt,value
2023-02-28T00:00:15.508Z,51.179272
2023-02-28T00:01:15.492Z,51.179314
2023-02-28T00:02:15.459Z,51.179314
2023-02-28T00:03:15.477Z,51.179291
2023-02-28T00:04:15.465Z,51.179279
2023-02-28T00:05:15.439Z,51.179264
2023-02-28T00:06:15.420Z,51.179283
2023-02-28T00:07:15.461Z,51.179279
2023-02-28T00:08:15.380Z,51.179276
2023-02-28T00:09:15.392Z,51.179253
2023-02-28T00:10:15.415Z,51.179283
2023-02-28T00:11:15.370Z,51.179291
2023-02-28T00:12:15.360Z,51.179306
2023-02-28T00:13:15.349Z,51.179253
2023-02-28T00:14:15.362Z,51.179230
2023-02-28T00:15:15.333Z,51.179199
2023-02-28T00:16:15.370Z,51.179203
2023-02-28T00:17:15.317Z,51.179184
2023-02-28T00:18:15.290Z,51.179195
2023-02-28T00:19:15.314Z,51.179203
2023-02-28T00:20:15.309Z,51.179192
2023-02-28T00:21:15.278Z,51.179222
2023-02-28T00:22:15.256Z,51.179169
2023-02-28T00:23:15.259Z,51.179119
2023-02-28T00:24:15.212Z,51.179161
2023-02-28T00:25:15.227Z,51.179184
2023-02-28T00:26:15.353Z,51.179237
2023-02-28T00:27:16.205Z,51.179264
2023-02-28T00:28:15.189Z,51.179264
2023-02-28T00:29:15.175Z,51.179241
2023-02-28T00:30:15.177Z,51.179218
2023-02-28T00:31:15.231Z,51.179241
2023-02-28T00:32:15.201Z,51.179241
2023-02-28T00:33:15.132Z,51.179195
2023-02-28T00:34:15.116Z,51.179176
2023-02-28T00:35:15.130Z,51.179157
2023-02-28T00:36:15.149Z,51.179157
2023-02-28T00:37:15.105Z,51.179146
2023-02-28T00:38:15.064Z,51.179165
2023-02-28T00:39:15.094Z,51.179180
2023-02-28T00:40:15.039Z,51.179176
2023-02-28T00:41:15.066Z,51.179192
2023-02-28T00:42:15.058Z,51.179188
2023-02-28T00:43:15.038Z,51.179218
2023-02-28T00:44:15.027Z,51.179211
2023-02-28T00:45:15.001Z,51.179230
2023-02-28T00:46:15.053Z,51.179226
2023-02-28T00:47:14.963Z,51.179199
2023-02-28T00:48:14.992Z,51.179192
2023-02-28T00:49:14.989Z,51.179199
2023-02-28T00:50:14.943Z,51.179218
2023-02-28T00:51:14.942Z,51.179241
2023-02-28T00:52:14.961Z,51.179256
2023-02-28T00:53:14.940Z,51.179245
2023-02-28T00:54:14.888Z,51.179211
2023-02-28T00:55:14.926Z,51.179203
2023-02-28T00:56:14.890Z,51.179253
2023-02-28T00:57:14.873Z,51.179253
2023-02-28T00:58:14.894Z,51.179226
2023-02-28T00:59:14.864Z,51.179234
2023-02-28T01:00:14.853Z,51.179188
2023-02-28T01:01:14.928Z,51.179195
2023-02-28T01:02:14.836Z,51.179214
2023-02-28T01:03:14.814Z,51.179283
2023-02-28T01:04:14.828Z,51.179306
2023-02-28T01:05:14.812Z,51.179295
2023-02-28T01:06:14.819Z,51.179272
2023-02-28T01:07:14.789Z,51.179199
2023-02-28T01:08:14.782Z,51.179234
2023-02-28T01:09:14.751Z,51.179260
2023-02-28T01:10:14.781Z,51.179237
2023-02-28T01:11:14.732Z,51.179230
2023-02-28T01:12:14.747Z,51.179230
2023-02-28T01:13:14.729Z,51.179241
2023-02-28T01:14:14.696Z,51.179279
2023-02-28T01:15:14.691Z,51.179276
2023-02-28T01:16:14.725Z,51.179279
2023-02-28T01:17:14.675Z,51.179249
2023-02-28T01:18:14.645Z,51.179234
2023-02-28T01:19:14.701Z,51.179218
2023-02-28T01:20:14.629Z,51.179237
2023-02-28T01:21:14.635Z,51.179268
2023-02-28T01:22:14.656Z,51.179291
2023-02-28T01:23:14.612Z,51.179253
2023-02-28T01:24:14.609Z,51.179253
2023-02-28T01:25:14.672Z,51.179241
2023-02-28T01:26:14.594Z,51.179241
2023-02-28T01:27:14.553Z,51.179226
2023-02-28T01:28:14.574Z,51.179203
2023-02-28T01:29:14.573Z,51.179207
2023-02-28T01:30:14.518Z,51.179230
2023-02-28T01:31:14.550Z,51.179234
2023-02-28T01:32:14.541Z,51.179234
2023-02-28T01:33:14.504Z,51.179203
2023-02-28T01:34:14.511Z,51.179256
2023-02-28T01:35:14.475Z,51.179264
2023-02-28T01:36:14.497Z,51.179256
2023-02-28T01:37:14.490Z,51.179241
2023-02-28T01:38:22.203Z,51.179256
2023-02-28T01:39:16.446Z,51.179253
2023-02-28T01:40:14.455Z,51.179192
2023-02-28T01:41:14.442Z,51.179111
2023-02-28T01:42:14.396Z,51.179173
2023-02-28T01:43:14.419Z,51.179268
2023-02-28T01:44:14.363Z,51.179234
2023-02-28T01:45:14.363Z,51.179234
2023-02-28T01:46:14.426Z,51.179203
2023-02-28T01:47:14.371Z,51.179203
2023-02-28T01:48:14.323Z,51.179211
2023-02-28T01:49:14.328Z,51.179173
2023-02-28T01:50:15.324Z,51.179161
2023-02-28T01:51:14.303Z,51.179176
2023-02-28T01:52:14.307Z,51.179245
2023-02-28T01:53:14.305Z,51.179157
2023-02-28T01:54:14.258Z,51.179138
2023-02-28T01:55:14.275Z,51.179150
2023-02-28T01:56:14.262Z,51.179214
2023-02-28T01:57:14.248Z,51.179264
2023-02-28T01:58:14.249Z,51.179272
2023-02-28T01:59:14.229Z,51.179199
2023-02-28T02:00:14.194Z,51.179203
2023-02-28T02:01:14.198Z,51.179245
2023-02-28T02:02:14.212Z,51.179256
2023-02-28T02:03:15.662Z,51.179306
2023-02-28T02:04:14.170Z,51.179298
2023-02-28T02:05:14.156Z,51.179260
2023-02-28T02:06:14.169Z,51.179241
2023-02-28T02:07:14.143Z,51.179279
2023-02-28T02:08:14.109Z,51.179321
2023-02-28T02:09:14.142Z,51.179329
2023-02-28T02:10:14.109Z,51.179314
2023-02-28T02:11:14.104Z,51.179295
2023-02-28T02:12:14.065Z,51.179256
2023-02-28T02:13:15.071Z,51.179283
2023-02-28T02:14:14.072Z,51.179192
2023-02-28T02:15:14.045Z,51.179207
2023-02-28T02:16:14.138Z,51.179211
2023-02-28T02:17:14.052Z,51.179245
2023-02-28T02:18:14.007Z,51.179256
2023-02-28T02:19:14.006Z,51.179245
2023-02-28T02:20:14.011Z,51.179264
2023-02-28T02:21:13.989Z,51.179283
2023-02-28T02:22:13.989Z,51.179283
2023-02-28T02:23:13.988Z,51.179192
2023-02-28T02:24:13.947Z,51.179142
2023-02-28T02:25:13.954Z,51.179249
2023-02-28T02:26:13.963Z,51.179234
2023-02-28T02:27:13.940Z,51.179234
2023-02-28T02:28:13.887Z,51.179260
2023-02-28T02:29:13.894Z,51.179256
2023-02-28T02:30:13.914Z,51.179234
2023-02-28T02:31:13.898Z,51.179214
2023-02-28T02:32:13.908Z,51.179260
2023-02-28T02:33:13.873Z,51.179283
2023-02-28T02:34:13.830Z,51.179279
2023-02-28T02:35:13.830Z,51.179287
2023-02-28T02:36:13.838Z,51.179245
2023-02-28T02:37:45.749Z,51.179234
2023-02-28T02:38:13.807Z,51.179253
2023-02-28T02:39:13.791Z,51.179214
2023-02-28T02:40:13.777Z,51.179245
2023-02-28T02:41:13.795Z,51.179295
2023-02-28T02:42:13.758Z,51.179279
2023-02-28T02:43:13.766Z,51.179283
2023-02-28T02:44:13.741Z,51.179295
2023-02-28T02:45:13.716Z,51.179264
2023-02-28T02:46:13.768Z,51.179222
2023-02-28T02:47:13.719Z,51.179207
2023-02-28T02:48:13.710Z,51.179207
2023-02-28T02:49:13.697Z,51.179264
2023-02-28T02:50:13.684Z,51.179287
2023-02-28T02:51:13.658Z,51.179264
2023-02-28T02:52:13.680Z,51.179279
2023-02-28T02:53:13.645Z,51.179272
2023-02-28T02:54:13.650Z,51.179279
2023-02-28T02:55:13.614Z,51.179218
2023-02-28T02:56:13.614Z,51.179230
2023-02-28T02:57:13.600Z,51.179260
2023-02-28T02:58:13.611Z,51.179279
2023-02-28T02:59:13.592Z,51.179214
2023-02-28T03:00:13.568Z,51.179199
2023-02-28T03:01:13.611Z,51.179230
2023-02-28T03:02:13.565Z,51.179218
2023-02-28T03:03:13.542Z,51.179256
2023-02-28T03:04:13.532Z,51.179260
2023-02-28T03:05:13.521Z,51.179249
2023-02-28T03:06:13.519Z,51.179241
2023-02-28T03:07:13.513Z,51.179268
2023-02-28T03:08:13.485Z,51.179287
2023-02-28T03:09:13.487Z,51.179276
2023-02-28T03:10:13.460Z,51.179249
2023-02-28T03:11:13.462Z,51.179211
2023-02-28T03:12:13.448Z,51.179192
2023-02-28T03:13:13.445Z,51.179218
2023-02-28T03:14:13.435Z,51.179237
2023-02-28T03:15:13.410Z,51.179264
2023-02-28T03:16:13.482Z,51.179226
2023-02-28T03:17:13.401Z,51.179211
2023-02-28T03:18:13.391Z,51.179237
2023-02-28T03:19:13.392Z,51.179230
2023-02-28T03:20:13.393Z,51.179222
2023-02-28T03:21:13.345Z,51.179234
2023-02-28T03:22:13.346Z,51.179237
2023-02-28T03:23:13.331Z,51.179237
2023-02-28T03:24:13.332Z,51.179249
2023-02-28T03:25:13.324Z,51.179272
2023-02-28T03:26:13.324Z,51.179260
2023-02-28T03:27:13.285Z,51.179249
2023-02-28T03:28:13.282Z,51.179241
2023-02-28T03:29:13.284Z,51.179234
2023-02-28T03:30:13.285Z,51.179218
2023-02-28T03:31:13.288Z,51.179207
2023-02-28T03:32:13.389Z,51.179230
2023-02-28T03:33:13.238Z,51.179234
2023-02-28T03:34:13.236Z,51.179253
2023-02-28T03:35:13.223Z,51.179226
2023-02-28T03:36:13.201Z,51.179207
2023-02-28T03:37:13.272Z,51.179230
2023-02-28T03:38:13.182Z,51.179256
2023-02-28T03:39:13.161Z,51.179195
2023-02-28T03:40:13.145Z,51.179211
2023-02-28T03:41:13.154Z,51.179249
2023-02-28T03:42:13.126Z,51.179276
2023-02-28T03:43:13.123Z,51.179264
2023-02-28T03:44:13.097Z,51.179230
2023-02-28T03:45:13.101Z,51.179192
2023-02-28T03:46:13.153Z,51.179211
2023-02-28T03:47:13.103Z,51.179234
2023-02-28T03:48:13.072Z,51.179230
2023-02-28T03:49:13.078Z,51.179245
2023-02-28T03:50:13.078Z,51.179249
2023-02-28T03:51:13.060Z,51.179253
2023-02-28T03:52:13.036Z,51.179260
2023-02-28T03:53:13.025Z,51.179256
2023-02-28T03:54:13.033Z,51.179230
2023-02-28T03:55:12.988Z,51.179245
2023-02-28T03:56:12.998Z,51.179279
2023-02-28T03:57:12.967Z,51.179207
2023-02-28T03:58:13.980Z,51.179253
2023-02-28T03:59:12.963Z,51.179272
2023-02-28T04:00:12.948Z,51.179276
2023-02-28T04:01:12.926Z,51.179222
2023-02-28T04:02:12.916Z,51.179234
2023-02-28T04:03:12.918Z,51.179253
2023-02-28T04:04:12.993Z,51.179245
2023-02-28T04:05:12.897Z,51.179272
2023-02-28T04:06:12.919Z,51.179245
2023-02-28T04:07:12.884Z,51.179245
2023-02-28T04:08:12.884Z,51.179241
2023-02-28T04:10:59.733Z,51.179279
2023-02-28T04:11:59.717Z,51.179249
2023-02-28T04:12:59.695Z,51.179245
2023-02-28T04:13:59.705Z,51.179222
2023-02-28T04:14:59.702Z,51.179214
2023-02-28T04:15:59.772Z,51.179207
2023-02-28T04:16:59.647Z,51.179222
2023-02-28T04:17:59.657Z,51.179199
2023-02-28T04:18:59.626Z,51.179203
2023-02-28T04:19:59.640Z,51.179207
2023-02-28T04:20:59.626Z,51.179237
2023-02-28T04:21:59.606Z,51.179245
2023-02-28T04:22:59.574Z,51.179230
2023-02-28T04:24:31.961Z,51.179253
2023-02-28T04:24:59.566Z,51.179241
2023-02-28T04:25:59.563Z,51.179249
2023-02-28T04:26:59.556Z,51.179234
2023-02-28T04:27:59.532Z,51.179237
2023-02-28T04:28:59.541Z,51.179222
2023-02-28T04:29:59.519Z,51.179222
2023-02-28T04:30:59.496Z,51.179241
2023-02-28T04:31:59.535Z,51.179241
2023-02-28T04:32:59.487Z,51.179207
2023-02-28T04:33:59.470Z,51.179211
2023-02-28T04:34:59.455Z,51.179237
2023-02-28T04:35:59.511Z,51.179226
2023-02-28T04:37:12.355Z,51.179241
2023-02-28T04:38:01.425Z,51.179268
2023-02-28T04:38:59.420Z,51.179306
2023-02-28T04:39:59.414Z,51.179306
2023-02-28T04:40:59.393Z,51.179291
2023-02-28T04:41:59.377Z,51.179272
2023-02-28T04:42:59.380Z,51.179214
2023-02-28T04:43:59.359Z,51.179245
2023-02-28T04:44:59.360Z,51.179253
2023-02-28T04:45:59.370Z,51.179237
2023-02-28T04:46:59.360Z,51.179245
2023-02-28T04:47:59.315Z,51.179260
2023-02-28T04:48:59.305Z,51.179253
2023-02-28T04:49:59.315Z,51.179272
2023-02-28T04:50:59.288Z,51.179249
2023-02-28T04:51:59.265Z,51.179276
2023-02-28T04:52:59.283Z,51.179276
2023-02-28T04:53:59.252Z,51.179291
2023-02-28T04:54:59.237Z,51.179306
2023-02-28T04:55:59.231Z,51.179283
2023-02-28T04:56:59.246Z,51.179230
2023-02-28T04:57:59.233Z,51.179230
2023-02-28T04:58:59.200Z,51.179214
2023-02-28T04:59:59.208Z,51.179199
2023-02-28T05:00:59.174Z,51.179241
2023-02-28T05:01:59.204Z,51.179230
2023-02-28T05:02:59.156Z,51.179245
2023-02-28T05:03:59.139Z,51.179268
2023-02-28T05:04:59.190Z,51.179245
2023-02-28T05:05:59.163Z,51.179245
2023-02-28T05:06:59.132Z,51.179272
2023-02-28T05:07:59.097Z,51.179264
2023-02-28T05:08:59.119Z,51.179253
2023-02-28T05:09:59.092Z,51.179237
2023-02-28T05:10:59.078Z,51.179256
2023-02-28T05:11:59.110Z,51.179264
2023-02-28T05:12:59.054Z,51.179256
2023-02-28T05:13:59.053Z,51.179295
2023-02-28T05:14:59.031Z,51.179310
2023-02-28T05:15:59.133Z,51.179306
2023-02-28T05:16:59.018Z,51.179283
2023-02-28T05:17:59.018Z,51.179260
2023-02-28T05:18:59.034Z,51.179287
2023-02-28T05:20:09.755Z,51.179298
2023-02-28T05:21:00.967Z,51.179279
2023-02-28T05:21:58.970Z,51.179333
2023-02-28T05:22:58.949Z,51.179379
2023-02-28T05:23:58.952Z,51.179321
2023-02-28T05:24:58.919Z,51.179264
2023-02-28T05:25:58.909Z,51.179291
2023-02-28T05:26:59.929Z,51.179295
2023-02-28T05:27:58.892Z,51.179287
2023-02-28T05:28:58.881Z,51.179298
2023-02-28T05:29:58.881Z,51.179291
2023-02-28T05:30:58.849Z,51.179298
2023-02-28T05:31:58.940Z,51.179272
2023-02-28T05:32:58.839Z,51.179268
2023-02-28T05:33:58.840Z,51.179314
2023-02-28T05:34:58.819Z,51.179272
2023-02-28T05:35:58.912Z,51.179268
2023-02-28T05:36:58.803Z,51.179272
2023-02-28T05:37:58.769Z,51.179287
2023-02-28T05:38:58.787Z,51.179260
2023-02-28T05:39:58.754Z,51.179260
2023-02-28T05:40:58.749Z,51.179272
2023-02-28T05:41:58.749Z,51.179268
2023-02-28T05:42:58.723Z,51.179249
2023-02-28T05:43:58.723Z,51.179234
2023-02-28T05:44:58.707Z,51.179207
2023-02-28T05:45:58.773Z,51.179234
2023-02-28T05:46:58.700Z,51.179256
2023-02-28T05:47:58.668Z,51.179272
2023-02-28T05:48:58.766Z,51.179276
2023-02-28T05:49:58.653Z,51.179287
2023-02-28T05:50:58.644Z,51.179260
2023-02-28T05:51:58.639Z,51.179241
2023-02-28T05:52:58.625Z,51.179268
2023-02-28T05:53:58.617Z,51.179298
2023-02-28T05:54:58.588Z,51.179295
2023-02-28T05:55:58.585Z,51.179298
2023-02-28T05:56:58.578Z,51.179260
2023-02-28T05:57:58.557Z,51.179283
2023-02-28T05:58:58.569Z,51.179256
2023-02-28T05:59:58.556Z,51.179256
2023-02-28T06:00:58.537Z,51.179272
2023-02-28T06:01:58.559Z,51.179253
2023-02-28T06:02:58.661Z,51.179253
2023-02-28T06:03:58.491Z,51.179260
2023-02-28T06:04:58.493Z,51.179249
2023-02-28T06:05:58.483Z,51.179260
2023-02-28T06:06:58.529Z,51.179241
2023-02-28T06:07:58.471Z,51.179226
2023-02-28T06:08:58.448Z,51.179241
2023-02-28T06:09:58.440Z,51.179188
2023-02-28T06:10:58.432Z,51.179176
2023-02-28T06:11:58.427Z,51.179192
2023-02-28T06:12:58.407Z,51.179214
2023-02-28T06:13:58.442Z,51.179222
2023-02-28T06:14:58.388Z,51.179214
2023-02-28T06:15:58.380Z,51.179230
2023-02-28T06:16:59.234Z,51.179256
2023-02-28T06:17:59.359Z,51.179287
2023-02-28T06:18:58.381Z,51.179260
2023-02-28T06:19:58.379Z,51.179230
2023-02-28T06:20:58.325Z,51.179188
2023-02-28T06:21:58.320Z,51.179214
2023-02-28T06:22:59.007Z,51.179226
2023-02-28T06:23:58.368Z,51.179214
2023-02-28T06:24:58.290Z,51.179218
2023-02-28T06:25:58.284Z,51.179226
2023-02-28T06:26:58.271Z,51.179226
2023-02-28T06:27:58.278Z,51.179214
2023-02-28T06:28:58.275Z,51.179211
2023-02-28T06:29:58.244Z,51.179245
2023-02-28T06:30:58.322Z,51.179249
2023-02-28T06:31:58.221Z,51.179249
2023-02-28T06:32:58.213Z,51.179287
2023-02-28T06:33:58.209Z,51.179283
2023-02-28T06:34:58.188Z,51.179253
2023-02-28T06:35:58.217Z,51.179241
2023-02-28T06:36:58.180Z,51.179207
2023-02-28T06:37:58.144Z,51.179218
2023-02-28T06:38:58.164Z,51.179214
2023-02-28T06:39:58.117Z,51.179241
2023-02-28T06:40:58.104Z,51.179253
2023-02-28T06:41:58.420Z,51.179249
2023-02-28T06:42:58.103Z,51.179241
2023-02-28T06:43:58.104Z,51.179230
2023-02-28T06:44:58.086Z,51.179249
2023-02-28T06:45:58.085Z,51.179222
2023-02-28T06:46:58.053Z,51.179237
2023-02-28T06:47:58.046Z,51.179268
2023-02-28T06:48:58.045Z,51.179256
2023-02-28T06:49:58.015Z,51.179256
2023-02-28T06:50:58.005Z,51.179241
2023-02-28T06:51:58.027Z,51.179241
2023-02-28T06:52:58.000Z,51.179253
2023-02-28T06:53:57.984Z,51.179234
2023-02-28T06:54:57.980Z,51.179237
2023-02-28T06:55:57.977Z,51.179241
2023-02-28T06:56:57.965Z,51.179249
2023-02-28T06:57:57.933Z,51.179276
2023-02-28T06:58:57.929Z,51.179287
2023-02-28T06:59:57.917Z,51.179256
2023-02-28T07:00:57.899Z,51.179253
2023-02-28T07:01:57.987Z,51.179214
2023-02-28T07:02:57.897Z,51.179188
2023-02-28T07:03:57.880Z,51.179207
2023-02-28T07:04:57.942Z,51.179192
2023-02-28T07:05:57.861Z,51.179207
2023-02-28T07:06:57.849Z,51.179199
2023-02-28T07:07:57.838Z,51.179192
2023-02-28T07:08:57.840Z,51.179161
2023-02-28T07:09:57.804Z,51.179245
2023-02-28T07:10:57.796Z,51.179237
2023-02-28T07:11:57.801Z,51.179214
2023-02-28T07:12:57.777Z,51.179188
2023-02-28T07:13:57.776Z,51.179211
2023-02-28T07:14:57.769Z,51.179222
2023-02-28T07:15:57.789Z,51.179214
2023-02-28T07:16:57.735Z,51.179226
2023-02-28T07:17:57.711Z,51.179214
2023-02-28T07:18:57.727Z,51.179211
2023-02-28T07:19:57.715Z,51.179165
2023-02-28T07:20:57.682Z,51.179207
2023-02-28T07:21:57.676Z,51.179199
2023-02-28T07:22:57.683Z,51.179260
2023-02-28T07:23:57.677Z,51.179260
2023-02-28T07:24:57.648Z,51.179169
2023-02-28T07:25:57.640Z,51.179142
2023-02-28T07:26:57.627Z,51.179234
2023-02-28T07:27:57.619Z,51.179291
2023-02-28T07:28:57.607Z,51.179295
2023-02-28T07:29:57.612Z,51.179260
2023-02-28T07:30:57.608Z,51.179276
2023-02-28T07:31:57.682Z,51.179226
2023-02-28T07:32:57.560Z,51.179207
2023-02-28T07:33:57.573Z,51.179192
2023-02-28T07:34:57.547Z,51.179195
2023-02-28T07:35:57.583Z,51.179214
2023-02-28T07:36:57.529Z,51.179234
2023-02-28T07:37:57.508Z,51.179253
2023-02-28T07:38:57.504Z,51.179256
2023-02-28T07:39:57.492Z,51.179230
2023-02-28T07:40:57.488Z,51.179203
2023-02-28T07:41:57.479Z,51.179234
2023-02-28T07:42:57.458Z,51.179234
2023-02-28T07:43:57.453Z,51.179222
2023-02-28T07:44:57.440Z,51.179241
2023-02-28T07:45:57.439Z,51.179214
2023-02-28T07:46:57.437Z,51.179214
2023-02-28T07:47:57.403Z,51.179203
2023-02-28T07:48:57.401Z,51.179226
2023-02-28T07:49:57.401Z,51.179237
2023-02-28T07:50:57.386Z,51.179211
2023-02-28T07:51:57.363Z,51.179203
2023-02-28T07:52:58.358Z,51.179256
2023-02-28T07:53:57.341Z,51.179295
2023-02-28T07:54:57.362Z,51.179325
2023-02-28T07:55:57.341Z,51.179207
2023-02-28T07:56:57.297Z,51.179245
2023-02-28T07:57:57.301Z,51.179333
2023-02-28T07:58:57.291Z,51.179245
2023-02-28T07:59:57.274Z,51.179108
2023-02-28T08:00:57.305Z,51.179142
2023-02-28T08:01:57.311Z,51.179115
2023-02-28T08:02:57.262Z,51.179165
2023-02-28T08:03:57.253Z,51.179260
2023-02-28T08:04:57.269Z,51.179302
2023-02-28T08:05:57.229Z,51.179253
2023-02-28T08:06:57.200Z,51.179237
2023-02-28T08:07:57.218Z,51.179234
2023-02-28T08:08:57.272Z,51.179260
2023-02-28T08:09:57.203Z,51.179253
2023-02-28T08:10:57.448Z,51.179249
2023-02-28T08:11:58.898Z,51.179222
2023-02-28T08:12:57.166Z,51.179211
2023-02-28T08:13:57.174Z,51.179241
2023-02-28T08:14:57.120Z,51.179230
2023-02-28T08:15:57.147Z,51.179230
2023-02-28T08:16:57.119Z,51.179214
2023-02-28T08:17:57.088Z,51.179214
2023-02-28T08:18:57.062Z,51.179222
2023-02-28T08:19:57.061Z,51.179230
2023-02-28T08:20:57.077Z,51.179241
2023-02-28T08:21:57.042Z,51.179245
2023-02-28T08:22:57.030Z,51.179226
2023-02-28T08:23:57.020Z,51.179211
2023-02-28T08:24:56.999Z,51.179241
2023-02-28T08:25:57.027Z,51.179237
2023-02-28T08:26:56.998Z,51.179218
2023-02-28T08:27:56.976Z,51.179173
2023-02-28T08:28:58.011Z,51.179169
2023-02-28T08:29:57.979Z,51.179195
2023-02-28T08:30:56.955Z,51.179192
2023-02-28T08:31:57.075Z,51.179207
2023-02-28T08:32:56.965Z,51.179211
2023-02-28T08:33:56.917Z,51.179211
2023-02-28T08:34:56.913Z,51.179188
2023-02-28T08:35:57.012Z,51.179207
2023-02-28T08:36:56.888Z,51.179207
2023-02-28T08:37:56.874Z,51.179207
2023-02-28T08:38:56.891Z,51.179214
2023-02-28T08:39:56.883Z,51.179234
2023-02-28T08:40:56.855Z,51.179222
2023-02-28T08:42:07.179Z,51.179249
2023-02-28T08:42:58.829Z,51.179264
2023-02-28T08:43:56.828Z,51.179234
2023-02-28T08:44:56.807Z,51.179199
2023-02-28T08:45:56.822Z,51.179256
2023-02-28T08:46:56.794Z,51.179298
2023-02-28T08:47:56.776Z,51.179241
2023-02-28T08:48:56.775Z,51.179226
2023-02-28T08:49:56.746Z,51.179218
2023-02-28T08:51:06.859Z,51.179203
2023-02-28T08:51:58.738Z,51.179237
2023-02-28T08:52:56.712Z,51.179260
2023-02-28T08:53:56.728Z,51.179245
2023-02-28T08:54:56.713Z,51.179226
2023-02-28T08:55:56.695Z,51.179234
2023-02-28T08:56:56.672Z,51.179256
2023-02-28T08:57:56.669Z,51.179272
2023-02-28T08:58:56.687Z,51.179260
2023-02-28T08:59:56.657Z,51.179249
2023-02-28T09:00:56.704Z,51.179234
2023-02-28T09:01:56.625Z,51.179203
2023-02-28T09:02:56.619Z,51.179234
2023-02-28T09:04:57.597Z,51.179279
2023-02-28T09:05:56.603Z,51.179268
2023-02-28T09:06:56.563Z,51.179245
2023-02-28T09:07:56.568Z,51.179230
2023-02-28T09:08:56.575Z,51.179249
2023-02-28T09:09:56.581Z,51.179264
2023-02-28T09:10:56.549Z,51.179256
2023-02-28T09:11:56.554Z,51.179249
2023-02-28T09:12:56.526Z,51.179276
2023-02-28T09:13:56.510Z,51.179256
2023-02-28T09:14:56.515Z,51.179249
2023-02-28T09:15:56.492Z,51.179241
2023-02-28T09:16:56.519Z,51.179279
2023-02-28T09:17:56.469Z,51.179253
2023-02-28T09:18:56.464Z,51.179256
2023-02-28T09:19:56.476Z,51.179264
2023-02-28T09:20:56.453Z,51.179256
2023-02-28T09:21:56.424Z,51.179260
2023-02-28T09:22:56.401Z,51.179264
2023-02-28T09:23:56.399Z,51.179272
2023-02-28T09:24:56.427Z,51.179253
2023-02-28T09:25:56.380Z,51.179253
2023-02-28T09:27:04.548Z,51.179279
2023-02-28T09:27:58.360Z,51.179276
2023-02-28T09:28:56.354Z,51.179272
2023-02-28T09:29:56.365Z,51.179230
2023-02-28T09:30:56.386Z,51.179226
2023-02-28T09:31:56.343Z,51.179214
2023-02-28T09:32:56.322Z,51.179234
2023-02-28T09:33:56.360Z,51.179272
2023-02-28T09:34:56.304Z,51.179253
2023-02-28T09:35:56.324Z,51.179291
2023-02-28T09:36:56.329Z,51.179264
2023-02-28T09:37:56.309Z,51.179237
2023-02-28T09:38:56.265Z,51.179218
2023-02-28T09:39:56.265Z,51.179237
2023-02-28T09:40:56.239Z,51.179260
2023-02-28T09:41:56.239Z,51.179272
2023-02-28T09:42:56.204Z,51.179245
2023-02-28T09:43:56.198Z,51.179256
2023-02-28T09:44:56.207Z,51.179283
2023-02-28T09:45:56.225Z,51.179276
2023-02-28T09:46:56.164Z,51.179256
2023-02-28T09:47:56.169Z,51.179260
2023-02-28T09:48:56.158Z,51.179256
2023-02-28T09:49:56.127Z,51.179253
2023-02-28T09:50:56.121Z,51.179272
2023-02-28T09:51:56.103Z,51.179272
2023-02-28T09:52:56.097Z,51.179256
2023-02-28T09:54:01.333Z,51.179241
2023-02-28T09:54:58.077Z,51.179245
2023-02-28T09:55:56.069Z,51.179245
2023-02-28T09:56:56.049Z,51.179253
2023-02-28T09:57:56.041Z,51.179237
2023-02-28T09:58:56.073Z,51.179222
2023-02-28T09:59:56.043Z,51.179317
2023-02-28T10:00:56.033Z,51.179302
2023-02-28T10:01:56.055Z,51.179298
2023-02-28T10:02:55.998Z,51.179291
2023-02-28T10:03:55.985Z,51.179256
2023-02-28T10:04:56.096Z,51.179245
2023-02-28T10:05:55.977Z,51.179226
2023-02-28T10:06:56.005Z,51.179268
2023-02-28T10:07:56.027Z,51.179325
2023-02-28T10:08:55.969Z,51.179302
2023-02-28T10:09:56.012Z,51.179287
2023-02-28T10:10:55.905Z,51.179249
2023-02-28T10:11:56.968Z,51.179207
2023-02-28T10:12:55.917Z,51.179241
2023-02-28T10:13:55.898Z,51.179253
2023-02-28T10:14:55.880Z,51.179249
2023-02-28T10:15:55.946Z,51.179237
2023-02-28T10:16:55.850Z,51.179241
2023-02-28T10:18:56.830Z,51.179249
2023-02-28T10:19:55.837Z,51.179256
2023-02-28T10:20:55.793Z,51.179264
2023-02-28T10:21:55.792Z,51.179276
2023-02-28T10:22:55.791Z,51.179253
2023-02-28T10:23:55.801Z,51.179272
2023-02-28T10:24:55.761Z,51.179268
2023-02-28T10:25:55.749Z,51.179268
2023-02-28T10:26:55.733Z,51.179268
2023-02-28T10:27:55.747Z,51.179253
2023-02-28T10:28:55.720Z,51.179279
2023-02-28T10:29:55.739Z,51.179298
2023-02-28T10:30:55.726Z,51.179230
2023-02-28T10:31:55.734Z,51.179222
2023-02-28T10:32:55.721Z,51.179256
2023-02-28T10:33:55.678Z,51.179295
2023-02-28T10:34:55.663Z,51.179352
2023-02-28T10:35:55.687Z,51.179386
2023-02-28T10:36:55.681Z,51.179260
2023-02-28T10:37:55.627Z,51.179276
2023-02-28T10:38:55.619Z,51.179207
2023-02-28T10:39:55.608Z,51.179153
2023-02-28T10:40:55.609Z,51.179169
2023-02-28T10:41:55.659Z,51.179165
2023-02-28T10:42:55.575Z,51.179199
2023-02-28T10:43:55.567Z,51.179119
2023-02-28T10:44:55.560Z,51.179150
2023-02-28T10:45:55.556Z,51.179157
2023-02-28T10:46:55.562Z,51.179241
2023-02-28T10:47:55.547Z,51.179325
2023-02-28T10:48:55.531Z,51.179317
2023-02-28T10:49:55.513Z,51.179276
2023-02-28T10:50:55.490Z,51.179207
2023-02-28T10:51:55.491Z,51.179237
2023-02-28T10:52:55.510Z,51.179253
2023-02-28T10:54:02.696Z,51.179287
2023-02-28T10:54:57.454Z,51.179276
2023-02-28T10:55:55.436Z,51.179222
2023-02-28T10:56:56.435Z,51.179276
2023-02-28T10:57:55.448Z,51.179279
2023-02-28T10:58:55.444Z,51.179222
2023-02-28T10:59:55.420Z,51.179291
2023-02-28T11:00:55.392Z,51.179222
2023-02-28T11:01:55.443Z,51.179211
2023-02-28T11:02:55.380Z,51.179306
2023-02-28T11:03:55.371Z,51.179291
2023-02-28T11:04:55.477Z,51.179302
2023-02-28T11:05:55.335Z,51.179291
2023-02-28T11:06:55.347Z,51.179253
2023-02-28T11:07:55.330Z,51.179291
2023-02-28T11:08:55.319Z,51.179329
2023-02-28T11:09:55.316Z,51.179344
2023-02-28T11:10:55.307Z,51.179291
2023-02-28T11:11:55.284Z,51.179192
2023-02-28T11:12:55.270Z,51.179237
2023-02-28T11:13:55.259Z,51.179241
2023-02-28T11:14:55.245Z,51.179249
2023-02-28T11:15:55.296Z,51.179218
2023-02-28T11:16:55.224Z,51.179264
2023-02-28T11:17:55.214Z,51.179226
2023-02-28T11:18:56.201Z,51.179256
2023-02-28T11:19:55.184Z,51.179283
2023-02-28T11:20:55.171Z,51.179272
2023-02-28T11:21:55.157Z,51.179283
2023-02-28T11:22:55.163Z,51.179268
2023-02-28T11:23:55.164Z,51.179245
2023-02-28T11:24:55.125Z,51.179249
2023-02-28T11:25:55.129Z,51.179264
2023-02-28T11:26:55.125Z,51.179268
2023-02-28T11:27:55.105Z,51.179283